createdAt,value
2018-02-09T00:01:59.660Z,5.68
2018-02-09T00:04:27.560Z,6.40
2018-02-09T00:06:55.464Z,7.47
2018-02-09T00:09:24.094Z,6.43
2018-02-09T00:11:52.066Z,7.10
2018-02-09T00:14:19.955Z,7.32
2018-02-09T00:16:47.828Z,8.43
2018-02-09T00:19:15.716Z,6.55
2018-02-09T00:21:44.373Z,6.03
2018-02-09T00:24:12.338Z,5.97
2018-02-09T00:26:40.308Z,7.00
2018-02-09T00:29:08.160Z,6.60
2018-02-09T00:31:36.121Z,6.57
2018-02-09T00:34:04.009Z,6.55
2018-02-09T00:36:31.878Z,6.40
2018-02-09T00:38:59.827Z,6.35
2018-02-09T00:41:27.817Z,6.60
2018-02-09T00:43:55.691Z,7.35
2018-02-09T00:46:23.544Z,6.72
2018-02-09T00:48:51.483Z,6.28
2018-02-09T00:51:19.354Z,8.00
2018-02-09T00:53:47.311Z,7.57
2018-02-09T00:56:15.223Z,8.63
2018-02-09T00:58:43.113Z,7.68
2018-02-09T01:01:11.832Z,7.15
2018-02-09T01:03:39.756Z,7.25
2018-02-09T01:06:08.393Z,7.90
2018-02-09T01:08:36.289Z,7.12
2018-02-09T01:11:04.243Z,6.82
2018-02-09T01:13:32.237Z,6.25
2018-02-09T01:16:00.189Z,7.87
2018-02-09T01:18:28.123Z,6.22
2018-02-09T01:20:56.004Z,7.15
2018-02-09T01:23:23.897Z,6.78
2018-02-09T01:25:51.773Z,6.10
2018-02-09T01:28:19.672Z,8.25
2018-02-09T01:30:47.620Z,6.95
2018-02-09T01:33:16.312Z,6.05
2018-02-09T01:35:44.988Z,5.60
2018-02-09T01:38:13.683Z,6.45
2018-02-09T01:40:42.337Z,7.53
2018-02-09T01:43:10.191Z,6.03
2018-02-09T01:45:38.104Z,7.03
2018-02-09T01:48:06.740Z,8.60
2018-02-09T01:50:34.710Z,6.53
2018-02-09T01:53:02.598Z,7.93
2018-02-09T01:55:30.594Z,6.80
2018-02-09T01:57:59.288Z,8.48
2018-02-09T02:00:27.230Z,6.12
2018-02-09T02:02:55.181Z,7.05
2018-02-09T02:05:23.118Z,5.97
2018-02-09T02:07:51.031Z,6.32
2018-02-09T02:10:18.957Z,8.65
2018-02-09T02:12:46.927Z,7.68
2018-02-09T02:15:14.876Z,7.10
2018-02-09T02:17:42.809Z,8.50
2018-02-09T02:20:11.521Z,6.80
2018-02-09T02:22:39.419Z,6.90
2018-02-09T02:25:07.343Z,7.53
2018-02-09T02:27:36.122Z,6.22
2018-02-09T02:30:04.957Z,7.03
2018-02-09T02:32:32.971Z,7.00
2018-02-09T02:35:00.898Z,8.50
2018-02-09T02:37:28.799Z,7.50
2018-02-09T02:39:56.703Z,6.37
2018-02-09T02:42:24.615Z,7.30
2018-02-09T02:44:52.523Z,7.45
2018-02-09T02:47:21.301Z,8.93
2018-02-09T02:49:50.053Z,8.55
2018-02-09T02:52:17.954Z,8.05
2018-02-09T02:54:46.637Z,7.30
2018-02-09T02:59:49.644Z,8.30
2018-02-09T03:02:18.311Z,8.10
2018-02-09T03:04:46.189Z,9.63
2018-02-09T03:07:14.100Z,9.48
2018-02-09T03:09:42.005Z,8.40
2018-02-09T03:12:09.931Z,9.30
2018-02-09T03:14:37.942Z,11.00
2018-02-09T03:17:05.874Z,10.43
2018-02-09T03:19:33.793Z,9.70
2018-02-09T03:22:01.762Z,9.43
2018-02-09T03:24:29.695Z,9.27
2018-02-09T03:26:57.562Z,9.75
2018-02-09T03:29:25.489Z,9.63
2018-02-09T03:31:53.422Z,9.02
2018-02-09T03:34:21.312Z,10.00
2018-02-09T03:36:49.996Z,9.55
2018-02-09T03:39:18.678Z,9.75
2018-02-09T03:41:47.447Z,10.93
2018-02-09T03:44:15.383Z,10.50
2018-02-09T03:46:43.371Z,10.48
2018-02-09T03:49:11.328Z,9.93
2018-02-09T03:51:39.229Z,11.82
2018-02-09T03:54:07.118Z,9.57
2018-02-09T03:56:35.875Z,11.40
2018-02-09T03:59:03.789Z,10.48
2018-02-09T04:01:31.786Z,11.30
2018-02-09T04:03:59.777Z,11.18
2018-02-09T04:06:27.746Z,9.35
2018-02-09T04:08:55.721Z,10.27
2018-02-09T04:11:23.612Z,9.93
2018-02-09T04:13:52.294Z,10.40
2018-02-09T04:16:20.986Z,10.95
2018-02-09T04:18:49.684Z,9.80
2018-02-09T04:21:17.757Z,11.80
2018-02-09T04:23:45.676Z,10.02
2018-02-09T04:26:13.594Z,9.82
2018-02-09T04:28:41.479Z,9.77
2018-02-09T04:31:09.352Z,9.52
2018-02-09T04:33:37.307Z,10.60
2018-02-09T04:36:05.172Z,11.63
2018-02-09T04:41:08.051Z,9.60
2018-02-09T04:43:36.281Z,10.88
2018-02-09T04:46:04.195Z,8.93
2018-02-09T04:48:32.118Z,10.02
2018-02-09T04:51:00.126Z,10.43
2018-02-09T04:53:28.829Z,10.80
2018-02-09T04:55:56.764Z,12.05
2018-02-09T04:58:25.470Z,9.77
2018-02-09T05:00:53.391Z,10.35
2018-02-09T05:03:21.425Z,11.75
2018-02-09T05:05:49.369Z,10.75
2018-02-09T05:08:18.058Z,10.75
2018-02-09T05:10:46.791Z,11.38
2018-02-09T05:13:14.735Z,11.77
2018-02-09T05:15:42.676Z,10.02
2018-02-09T05:18:11.383Z,10.48
2018-02-09T05:20:39.343Z,10.02
2018-02-09T05:23:07.374Z,9.88
2018-02-09T05:25:35.291Z,10.32
2018-02-09T05:28:03.231Z,10.57
2018-02-09T05:30:32.027Z,12.50
2018-02-09T05:33:00.763Z,9.95
2018-02-09T05:35:28.742Z,10.55
2018-02-09T05:37:56.739Z,11.35
2018-02-09T05:40:24.652Z,11.93
2018-02-09T05:42:52.602Z,10.30
2018-02-09T05:45:20.756Z,9.60
2018-02-09T05:47:49.503Z,9.82
2018-02-09T05:50:17.514Z,10.10
2018-02-09T05:52:46.177Z,11.23
2018-02-09T05:55:14.163Z,11.43
2018-02-09T05:57:42.911Z,10.57
2018-02-09T06:00:10.856Z,11.05
2018-02-09T06:02:38.848Z,11.77
2018-02-09T06:05:06.862Z,12.05
2018-02-09T06:07:35.615Z,11.57
2018-02-09T06:10:03.515Z,10.85
2018-02-09T06:12:32.278Z,11.75
2018-02-09T06:15:00.255Z,12.20
2018-02-09T06:17:28.281Z,12.63
2018-02-09T06:19:56.213Z,14.18
2018-02-09T06:22:24.897Z,12.82
2018-02-09T06:24:53.572Z,11.18
2018-02-09T06:27:22.265Z,11.00
2018-02-09T06:29:50.925Z,12.02
2018-02-09T06:32:18.943Z,11.40
2018-02-09T06:34:46.940Z,12.90
2018-02-09T06:37:14.816Z,11.07
2018-02-09T06:39:42.728Z,10.32
2018-02-09T06:42:11.422Z,11.68
2018-02-09T06:44:39.318Z,13.85
2018-02-09T06:47:07.338Z,12.88
2018-02-09T06:49:36.081Z,12.88
2018-02-09T06:52:04.118Z,14.10
2018-02-09T06:54:32.083Z,13.20
2018-02-09T06:57:00.000Z,13.15
2018-02-09T06:59:27.907Z,11.65
2018-02-09T07:01:56.591Z,13.55
2018-02-09T07:04:25.280Z,10.90
2018-02-09T07:06:53.960Z,13.62
2018-02-09T07:09:22.652Z,12.93
2018-02-09T07:11:51.337Z,14.45
2018-02-09T07:14:19.219Z,13.70
2018-02-09T07:16:47.136Z,13.80
2018-02-09T07:19:15.070Z,15.32
2018-02-09T07:21:43.049Z,16.35
2018-02-09T07:24:10.940Z,13.95
2018-02-09T07:26:38.830Z,14.77
2018-02-09T07:29:07.560Z,14.10
2018-02-09T07:31:35.572Z,13.80
2018-02-09T07:34:03.534Z,14.30
2018-02-09T07:36:31.543Z,14.40
2018-02-09T07:38:59.503Z,14.23
2018-02-09T07:41:28.176Z,14.98
2018-02-09T07:43:56.943Z,14.70
2018-02-09T07:46:24.915Z,14.85
2018-02-09T07:48:52.878Z,13.68
2018-02-09T07:51:20.856Z,15.40
2018-02-09T07:53:48.810Z,16.02
2018-02-09T07:56:16.851Z,15.40
2018-02-09T07:58:44.747Z,15.60
2018-02-09T08:01:12.682Z,17.42
2018-02-09T08:03:40.686Z,15.35
2018-02-09T08:06:08.607Z,14.98
2018-02-09T08:08:36.525Z,16.30
2018-02-09T08:11:04.510Z,17.23
2018-02-09T08:13:32.454Z,18.23
2018-02-09T08:16:00.514Z,18.87
2018-02-09T08:18:28.443Z,21.35
2018-02-09T08:20:56.360Z,18.55
2018-02-09T08:23:24.231Z,19.87
2018-02-09T08:25:52.228Z,19.50
2018-02-09T08:28:20.918Z,19.87
2018-02-09T08:30:49.585Z,22.75
2018-02-09T08:33:17.502Z,26.35
2018-02-09T08:35:45.415Z,24.65
2018-02-09T08:38:13.350Z,21.87
2018-02-09T08:40:41.348Z,26.83
2018-02-09T08:43:09.422Z,24.35
2018-02-09T08:45:37.375Z,25.35
2018-02-09T08:48:05.266Z,27.83
2018-02-09T08:50:33.211Z,24.95
2018-02-09T08:53:01.174Z,25.85
2018-02-09T08:55:29.139Z,27.40
2018-02-09T08:57:57.067Z,28.35
2018-02-09T09:00:25.006Z,28.83
2018-02-09T09:02:52.884Z,27.50
2018-02-09T09:05:21.571Z,27.30
2018-02-09T09:07:50.273Z,28.25
2018-02-09T09:10:18.222Z,30.08
2018-02-09T09:12:46.939Z,28.40
2018-02-09T09:15:14.976Z,28.73
2018-02-09T09:17:43.666Z,31.45
2018-02-09T09:20:12.351Z,28.33
2018-02-09T09:22:41.099Z,30.75
2018-02-09T09:25:09.030Z,29.00
2018-02-09T09:27:36.964Z,30.02
2018-02-09T09:30:05.681Z,32.00
2018-02-09T09:32:33.717Z,31.58
2018-02-09T09:35:02.510Z,29.77
2018-02-09T09:37:31.275Z,32.03
2018-02-09T09:39:59.201Z,31.10
2018-02-09T09:42:27.215Z,32.03
2018-02-09T09:44:55.135Z,31.93
2018-02-09T09:47:23.056Z,29.90
2018-02-09T09:49:50.960Z,30.83
2018-02-09T09:52:19.722Z,33.57
2018-02-09T09:54:47.723Z,34.10
2018-02-09T09:57:15.678Z,28.70
2018-02-09T09:59:44.460Z,27.57
2018-02-09T10:02:24.920Z,30.63
2018-02-09T10:04:53.613Z,29.77
2018-02-09T10:07:22.297Z,25.87
2018-02-09T10:09:51.016Z,29.83
2018-02-09T10:12:19.030Z,29.93
2018-02-09T10:14:46.923Z,29.17
2018-02-09T10:17:15.618Z,27.67
2018-02-09T10:19:43.566Z,30.70
2018-02-09T10:22:12.312Z,27.03
2018-02-09T10:24:40.241Z,27.23
2018-02-09T10:27:08.142Z,26.57
2018-02-09T10:29:36.092Z,28.23
2018-02-09T10:32:04.027Z,27.47
2018-02-09T10:34:32.722Z,25.97
2018-02-09T10:37:01.515Z,28.60
2018-02-09T10:39:29.394Z,25.00
2018-02-09T10:41:57.383Z,23.57
2018-02-09T10:44:25.346Z,23.93
2018-02-09T10:46:53.256Z,23.57
2018-02-09T10:49:21.191Z,26.30
2018-02-09T10:51:49.108Z,24.33
2018-02-09T10:54:17.850Z,22.70
2018-02-09T10:56:45.867Z,23.90
2018-02-09T10:59:14.608Z,27.00
2018-02-09T11:01:42.568Z,27.53
2018-02-09T11:04:10.494Z,27.47
2018-02-09T11:06:39.187Z,28.20
2018-02-09T11:09:07.196Z,29.47
2018-02-09T11:11:35.194Z,30.17
2018-02-09T11:14:03.087Z,27.90
2018-02-09T11:16:31.762Z,28.47
2018-02-09T11:19:00.566Z,32.90
2018-02-09T11:21:28.466Z,29.10
2018-02-09T11:23:56.490Z,30.40
2018-02-09T11:26:25.170Z,28.60
2018-02-09T11:28:53.977Z,28.30
2018-02-09T11:31:21.892Z,28.83
2018-02-09T11:33:49.814Z,27.47
2018-02-09T11:36:17.750Z,29.00
2018-02-09T11:38:45.635Z,29.13
2018-02-09T11:41:14.344Z,29.40
2018-02-09T11:43:42.265Z,27.83
2018-02-09T11:46:10.292Z,28.07
2018-02-09T11:48:38.250Z,29.07
2018-02-09T11:51:06.242Z,28.60
2018-02-09T11:53:34.234Z,28.83
2018-02-09T11:56:02.184Z,27.33
2018-02-09T11:58:30.172Z,27.90
2018-02-09T12:00:58.089Z,27.93
2018-02-09T12:03:25.986Z,26.80
2018-02-09T12:05:53.990Z,28.13
2018-02-09T12:08:21.929Z,26.57
2018-02-09T12:10:49.921Z,27.27
2018-02-09T12:13:17.849Z,26.33
2018-02-09T12:15:46.157Z,24.20
2018-02-09T12:18:14.101Z,22.67
2018-02-09T12:20:42.023Z,21.57
2018-02-09T12:25:44.914Z,21.57
2018-02-09T12:28:12.877Z,21.83
2018-02-09T12:30:40.822Z,21.30
2018-02-09T12:33:08.754Z,21.73
2018-02-09T12:35:36.766Z,24.27
2018-02-09T12:38:04.759Z,28.93
2018-02-09T12:40:33.435Z,28.30
2018-02-09T12:43:01.365Z,28.87
2018-02-09T12:45:29.410Z,26.83
2018-02-09T12:47:57.407Z,27.47
2018-02-09T12:50:25.330Z,31.17
2018-02-09T12:52:54.118Z,30.10
2018-02-09T12:55:22.751Z,29.67
2018-02-09T12:57:50.712Z,36.20
2018-02-09T13:00:18.624Z,33.90
2018-02-09T13:02:46.559Z,36.33
2018-02-09T13:05:14.511Z,35.60
2018-02-09T13:07:42.522Z,35.37
2018-02-09T13:10:10.554Z,33.80
2018-02-09T13:12:50.299Z,31.63
2018-02-09T13:15:18.273Z,31.80
2018-02-09T13:17:46.271Z,26.47
2018-02-09T13:20:14.167Z,29.07
2018-02-09T13:22:54.713Z,30.10
2018-02-09T13:25:22.688Z,31.10
2018-02-09T13:27:51.460Z,29.87
2018-02-09T13:30:19.408Z,33.07
2018-02-09T13:32:59.439Z,26.53
2018-02-09T13:35:27.563Z,31.43
2018-02-09T13:37:55.355Z,28.63
2018-02-09T13:40:23.295Z,28.77
2018-02-09T13:42:51.194Z,29.63
2018-02-09T13:45:19.368Z,28.30
2018-02-09T13:47:47.322Z,33.13
2018-02-09T13:50:16.073Z,35.07
2018-02-09T13:52:44.052Z,34.17
2018-02-09T13:55:11.990Z,34.80
2018-02-09T13:57:40.035Z,34.63
2018-02-09T14:00:07.948Z,36.77
2018-02-09T14:02:35.937Z,40.90
2018-02-09T14:05:04.641Z,39.40
2018-02-09T14:07:33.506Z,39.80
2018-02-09T14:10:01.535Z,38.07
2018-02-09T14:12:29.479Z,38.57
2018-02-09T14:14:57.427Z,41.00
2018-02-09T14:17:26.172Z,41.03
2018-02-09T14:19:54.071Z,39.57
2018-02-09T14:22:22.001Z,38.90
2018-02-09T14:24:50.239Z,42.40
2018-02-09T14:27:18.159Z,40.00
2018-02-09T14:29:46.194Z,42.77
2018-02-09T14:32:14.107Z,39.97
2018-02-09T14:34:42.022Z,42.20
2018-02-09T14:37:09.953Z,37.13
2018-02-09T14:39:37.830Z,39.37
2018-02-09T14:42:06.592Z,37.60
2018-02-09T14:44:34.537Z,36.07
2018-02-09T14:47:02.495Z,40.73
2018-02-09T14:49:30.473Z,40.87
2018-02-09T14:51:59.258Z,42.40
2018-02-09T14:54:27.184Z,43.30
2018-02-09T14:56:55.860Z,44.30
2018-02-09T14:59:24.539Z,42.40
2018-02-09T15:01:53.274Z,45.33
2018-02-09T15:04:21.282Z,49.73
2018-02-09T15:06:49.240Z,50.30
2018-02-09T15:09:17.138Z,51.90
2018-02-09T15:11:45.846Z,53.30
2018-02-09T15:14:13.744Z,48.97
2018-02-09T15:16:41.768Z,54.63
2018-02-09T15:19:10.431Z,50.47
2018-02-09T15:21:38.450Z,47.17
2018-02-09T15:24:06.402Z,51.47
2018-02-09T15:26:34.379Z,50.63
2018-02-09T15:29:02.324Z,51.27
2018-02-09T15:31:31.014Z,48.07
2018-02-09T15:33:59.730Z,47.83
2018-02-09T15:36:27.620Z,52.07
2018-02-09T15:38:55.567Z,46.57
2018-02-09T15:41:23.548Z,52.83
2018-02-09T15:43:51.471Z,53.73
2018-02-09T15:46:20.190Z,51.47
2018-02-09T15:48:48.222Z,52.23
2018-02-09T15:51:16.982Z,52.80
2018-02-09T15:53:44.964Z,49.13
2018-02-09T15:56:13.016Z,53.90
2018-02-09T15:58:40.923Z,55.40
2018-02-09T16:01:09.668Z,56.10
2018-02-09T16:03:37.590Z,54.10
2018-02-09T16:06:05.594Z,57.43
2018-02-09T16:08:33.761Z,57.97
2018-02-09T16:11:01.810Z,57.63
2018-02-09T16:13:29.727Z,56.60
2018-02-09T16:15:57.761Z,60.73
2018-02-09T16:18:25.845Z,58.23
2018-02-09T16:20:53.798Z,58.63
2018-02-09T16:23:21.755Z,60.47
2018-02-09T16:25:49.678Z,59.07
2018-02-09T16:28:17.672Z,63.60
2018-02-09T16:30:46.371Z,64.70
2018-02-09T16:33:14.375Z,64.10
2018-02-09T16:35:42.363Z,62.73
2018-02-09T16:38:10.247Z,64.60
2018-02-09T16:40:38.220Z,68.13
2018-02-09T16:43:06.920Z,62.83
2018-02-09T16:45:34.964Z,65.60
2018-02-09T16:48:02.945Z,63.33
2018-02-09T16:50:31.658Z,66.13
2018-02-09T16:52:59.699Z,68.10
2018-02-09T16:55:27.703Z,65.97
2018-02-09T16:57:55.649Z,69.40
2018-02-09T17:00:24.407Z,65.10
2018-02-09T17:02:52.386Z,66.37
2018-02-09T17:05:20.348Z,64.30
2018-02-09T17:07:48.258Z,66.80
2018-02-09T17:10:16.228Z,66.57
2018-02-09T17:12:44.306Z,65.20
2018-02-09T17:15:12.280Z,72.77
2018-02-09T17:17:40.296Z,73.03
2018-02-09T17:20:09.042Z,69.55
2018-02-09T17:22:36.978Z,73.60
2018-02-09T17:25:05.002Z,69.43
2018-02-09T17:27:32.933Z,73.10
2018-02-09T17:30:00.866Z,68.97
2018-02-09T17:32:29.634Z,67.20
2018-02-09T17:34:57.511Z,77.72
2018-02-09T17:37:25.525Z,82.25
2018-02-09T17:39:53.683Z,76.80
2018-02-09T17:42:21.692Z,77.95
2018-02-09T17:44:49.703Z,73.53
2018-02-09T17:47:18.621Z,72.93
2018-02-09T17:49:46.635Z,78.60
2018-02-09T17:52:15.379Z,77.18
2018-02-09T17:54:43.317Z,74.90
2018-02-09T17:57:12.064Z,77.40
2018-02-09T17:59:39.991Z,73.62
2018-02-09T18:02:08.769Z,72.25
2018-02-09T18:04:37.550Z,75.75
2018-02-09T18:07:06.204Z,78.72
2018-02-09T18:09:34.154Z,76.18
2018-02-09T18:12:02.080Z,80.25
2018-02-09T18:14:30.845Z,72.75
2018-02-09T18:16:58.982Z,85.75
2018-02-09T18:19:26.947Z,91.75
2018-02-09T18:21:54.918Z,83.82
2018-02-09T18:24:22.945Z,87.95
2018-02-09T18:26:51.715Z,79.75
2018-02-09T18:29:19.664Z,79.62
2018-02-09T18:31:47.679Z,85.12
2018-02-09T18:34:16.426Z,80.75
2018-02-09T18:36:45.071Z,89.10
2018-02-09T18:39:13.038Z,85.12
2018-02-09T18:41:41.110Z,79.53
2018-02-09T18:44:09.238Z,83.20
2018-02-09T18:46:38.147Z,77.93
2018-02-09T18:49:06.903Z,77.22
2018-02-09T18:51:36.990Z,75.80
2018-02-09T18:54:04.970Z,83.07
2018-02-09T18:56:32.906Z,77.15
2018-02-09T18:59:00.823Z,79.03
2018-02-09T19:01:28.824Z,76.00
2018-02-09T19:03:57.618Z,74.72
2018-02-09T19:06:26.308Z,79.40
2018-02-09T19:08:54.957Z,80.40
2018-02-09T19:11:22.864Z,81.72
2018-02-09T19:13:50.772Z,77.25
2018-02-09T19:16:18.648Z,77.87
2018-02-09T19:18:46.575Z,79.68
2018-02-09T19:21:14.452Z,77.07
2018-02-09T19:23:42.383Z,77.40
2018-02-09T19:26:10.331Z,73.15
2018-02-09T19:28:38.207Z,84.90
2018-02-09T19:31:06.306Z,68.82
2018-02-09T19:33:34.244Z,77.57
2018-02-09T19:36:02.237Z,84.05
2018-02-09T19:38:30.118Z,84.40
2018-02-09T19:40:58.102Z,89.07
2018-02-09T19:43:26.022Z,87.40
2018-02-09T19:45:53.942Z,84.70
2018-02-09T19:48:21.908Z,85.80
2018-02-09T19:50:49.881Z,83.15
2018-02-09T19:53:17.764Z,87.68
2018-02-09T19:55:45.678Z,77.55
2018-02-09T19:58:14.383Z,83.12
2018-02-09T20:00:42.388Z,89.03
2018-02-09T20:03:10.321Z,84.30
2018-02-09T20:05:38.275Z,76.65
2018-02-09T20:08:07.239Z,76.68
2018-02-09T20:10:36.026Z,77.37
2018-02-09T20:13:04.028Z,71.35
2018-02-09T20:15:32.114Z,83.15
2018-02-09T20:18:00.945Z,79.12
2018-02-09T20:20:30.958Z,81.03
2018-02-09T20:22:59.131Z,77.87
2018-02-09T20:25:28.871Z,73.00
2018-02-09T20:28:00.400Z,76.57
2018-02-09T20:30:32.417Z,88.85
2018-02-09T20:33:04.391Z,77.00
2018-02-09T20:35:38.112Z,86.50
2018-02-09T20:38:08.569Z,84.28
2018-02-09T20:40:38.990Z,84.15
2018-02-09T20:43:11.083Z,82.90
2018-02-09T20:45:42.732Z,81.63
2018-02-09T20:48:11.492Z,83.57
2018-02-09T20:50:43.014Z,78.97
2018-02-09T20:53:15.771Z,70.80
2018-02-09T20:55:46.837Z,68.55
2018-02-09T20:58:18.721Z,68.85
2018-02-09T21:00:53.980Z,69.55
2018-02-09T21:03:25.670Z,67.05
2018-02-09T21:05:57.169Z,64.18
2018-02-09T21:08:27.986Z,63.80
2018-02-09T21:10:59.780Z,60.63
2018-02-09T21:13:31.035Z,55.78
2018-02-09T21:16:03.977Z,53.25
2018-02-09T21:18:36.756Z,52.45
2018-02-09T21:21:07.781Z,47.42
2018-02-09T21:23:40.122Z,50.28
2018-02-09T21:26:11.179Z,50.50
2018-02-09T21:28:45.471Z,47.75
2018-02-09T21:31:22.637Z,43.78
2018-02-09T21:33:58.856Z,44.20
2018-02-09T21:36:30.797Z,41.65
2018-02-09T21:39:02.783Z,42.90
2018-02-09T21:41:38.550Z,42.53
2018-02-09T21:44:11.028Z,41.85
2018-02-09T21:46:42.886Z,40.53
2018-02-09T21:49:17.962Z,41.78
2018-02-09T21:51:49.509Z,40.97
2018-02-09T21:54:20.241Z,43.80
2018-02-09T21:56:51.109Z,39.85
2018-02-09T21:59:22.870Z,41.45
2018-02-09T22:01:55.145Z,41.72
2018-02-09T22:04:25.805Z,40.42
2018-02-09T22:06:59.226Z,39.30
2018-02-09T22:09:31.435Z,38.28
2018-02-09T22:12:03.558Z,36.92
2018-02-09T22:14:39.794Z,34.97
2018-02-09T22:17:12.985Z,36.30
2018-02-09T22:19:46.829Z,34.53
2018-02-09T22:22:20.714Z,35.50
2018-02-09T22:24:52.298Z,32.38
2018-02-09T22:27:24.800Z,35.10
2018-02-09T22:29:56.494Z,33.13
2018-02-09T22:32:29.970Z,34.47
2018-02-09T22:35:01.594Z,30.85
2018-02-09T22:37:35.918Z,32.45
2018-02-09T22:40:08.311Z,33.65
2018-02-09T22:42:40.991Z,34.17
2018-02-09T22:45:12.907Z,31.98
2018-02-09T22:47:47.251Z,32.65
2018-02-09T22:50:20.236Z,31.77
2018-02-09T22:52:51.494Z,32.17
2018-02-09T22:55:22.061Z,30.73
2018-02-09T22:57:53.355Z,30.80
2018-02-09T23:00:23.961Z,30.50
2018-02-09T23:02:57.403Z,31.33
2018-02-09T23:05:27.185Z,28.90
2018-02-09T23:07:57.461Z,28.67
2018-02-09T23:10:28.385Z,29.65
2018-02-09T23:13:02.048Z,28.65
2018-02-09T23:15:36.189Z,29.85
2018-02-09T23:18:08.756Z,29.52
2018-02-09T23:20:44.942Z,28.60
2018-02-09T23:23:15.746Z,29.98
2018-02-09T23:25:48.837Z,29.73
2018-02-09T23:28:19.784Z,27.33
2018-02-09T23:30:53.948Z,28.17
2018-02-09T23:33:26.693Z,28.15
2018-02-09T23:35:58.855Z,26.95
2018-02-09T23:38:33.971Z,27.80
2018-02-09T23:41:07.310Z,29.77
2018-02-09T23:43:42.009Z,28.73
2018-02-09T23:46:14.713Z,26.90
2018-02-09T23:48:48.435Z,30.02
2018-02-09T23:51:21.240Z,27.45
2018-02-09T23:53:50.459Z,28.12
2018-02-09T23:56:22.521Z,27.83
2018-02-09T23:58:54.567Z,27.80
